Time;durP1;ratioP1;P1;durP2;ratioP2;P2;SDS_P1;SDS_P2;PMS_P1;PMS_P2;Temp;Humidity;BMP_temperature;BMP_pressure;BME280_temperature;BME280_humidity;BME280_pressure;Samples;Min_cycle;Max_cycle;Signal;HPM_P1;HPM_P2
2022/01/04 00:00:17;;;;;;;6.33;2.15;;;;;;;10.18;100.00;98245.14;4203589;82;28519;-83
2022/01/04 00:06:20;;;;;;;4.65;1.85;;;;;;;10.07;100.00;98236.67;4193849;82;28570;-83
2022/01/04 00:18:46;;;;;;;6.58;1.80;;;;;;;10.13;100.00;98223.05;4204463;82;28569;-82
2022/01/04 00:24:46;;;;;;;3.95;1.77;;;;;;;10.09;100.00;98216.53;4193857;82;28542;-82
2022/01/04 00:30:47;;;;;;;4.17;1.40;;;;;;;10.09;100.00;98214.39;4195681;82;28546;-81
2022/01/04 00:36:49;;;;;;;4.53;1.27;;;;;;;9.94;100.00;98215.79;4195549;82;28581;-82
2022/01/04 00:42:52;;;;;;;2.80;1.17;;;;;;;9.99;100.00;98212.37;4118720;84;28543;-82
2022/01/04 00:49:12;;;;;;;2.55;1.25;;;;;;;9.86;100.00;98202.81;4146845;84;28518;-82
2022/01/04 00:55:13;;;;;;;2.65;1.10;;;;;;;9.99;100.00;98196.25;4145546;84;28529;-81
2022/01/04 01:01:15;;;;;;;3.35;1.02;;;;;;;10.18;100.00;98192.22;4146083;84;28513;-82
2022/01/04 01:07:16;;;;;;;2.10;1.12;;;;;;;10.10;100.00;98186.47;4145810;84;28619;-81
2022/01/04 01:13:18;;;;;;;1.87;0.90;;;;;;;9.99;100.00;98186.86;4145222;84;28533;-80
2022/01/04 01:19:20;;;;;;;2.30;0.93;;;;;;;9.94;100.00;98181.44;4143975;84;28544;-82
2022/01/04 01:25:21;;;;;;;3.90;1.30;;;;;;;10.06;100.00;98171.93;4140461;84;28456;-82
2022/01/04 01:31:24;;;;;;;3.15;1.00;;;;;;;10.00;100.00;98168.37;4147178;84;28594;-82
2022/01/04 01:37:25;;;;;;;2.70;1.10;;;;;;;10.02;100.00;98164.35;4151788;84;28516;-81
2022/01/04 01:43:29;;;;;;;2.67;1.30;;;;;;;10.01;100.00;98156.56;4163749;84;28529;-81
2022/01/04 01:49:31;;;;;;;2.47;1.40;;;;;;;9.87;100.00;98167.64;4278071;81;28531;-81
2022/01/04 01:55:32;;;;;;;2.98;1.10;;;;;;;9.83;100.00;98168.38;4279143;81;28559;-81
2022/01/04 02:01:34;;;;;;;3.60;1.00;;;;;;;9.80;100.00;98162.18;4273152;81;28552;-82
2022/01/04 02:07:38;;;;;;;3.98;1.45;;;;;;;9.70;100.00;98163.66;4279599;81;28998;-82
2022/01/04 02:13:39;;;;;;;4.83;1.77;;;;;;;9.61;100.00;98154.40;4280111;81;28540;-82
2022/01/04 02:19:40;;;;;;;2.90;1.40;;;;;;;9.52;100.00;98154.02;4271833;81;28515;-81
2022/01/04 02:25:42;;;;;;;3.52;1.52;;;;;;;9.37;100.00;98151.91;4278450;81;28529;-81
2022/01/04 02:31:43;;;;;;;2.30;1.30;;;;;;;9.42;100.00;98134.53;4267628;81;28550;-81
2022/01/04 02:37:45;;;;;;;3.33;1.20;;;;;;;9.41;100.00;98134.80;4239635;81;28595;-80
2022/01/04 02:43:46;;;;;;;3.05;1.22;;;;;;;9.37;100.00;98118.37;4191666;82;28518;-82
2022/01/04 02:49:47;;;;;;;3.25;1.30;;;;;;;9.29;100.00;98118.27;4193682;82;28542;-81
2022/01/04 02:55:48;;;;;;;4.70;1.35;;;;;;;9.23;100.00;98105.83;4195639;82;28492;-81
2022/01/04 03:01:50;;;;;;;2.45;1.20;;;;;;;9.26;100.00;98101.85;4187116;82;28567;-81
2022/01/04 03:07:51;;;;;;;3.20;1.02;;;;;;;9.31;100.00;98084.48;4126704;84;28528;-79
2022/01/04 03:13:52;;;;;;;2.58;1.20;;;;;;;9.39;100.00;98069.30;4155578;84;28512;-82
2022/01/04 03:19:53;;;;;;;2.87;1.35;;;;;;;9.41;100.00;98067.19;4145625;84;28557;-75
2022/01/04 03:25:55;;;;;;;2.30;1.15;;;;;;;9.24;100.00;98055.70;4154683;83;28643;-76
2022/01/04 03:31:57;;;;;;;2.92;1.22;;;;;;;9.09;100.00;98038.86;4149212;84;28542;-79
2022/01/04 03:37:58;;;;;;;2.50;1.00;;;;;;;9.19;100.00;98019.68;4145143;84;28575;-80
2022/01/04 03:44:00;;;;;;;2.00;1.05;;;;;;;9.13;100.00;98019.34;4145702;84;28513;-81
2022/01/04 03:50:02;;;;;;;2.80;1.17;;;;;;;9.05;100.00;97995.63;4151046;84;28517;-80
2022/01/04 03:56:05;;;;;;;3.60;1.20;;;;;;;9.12;100.00;97997.62;4128879;84;28500;-81
2022/01/04 04:02:06;;;;;;;3.12;1.25;;;;;;;9.10;100.00;97994.34;4108265;85;28560;-81
2022/01/04 04:08:07;;;;;;;4.17;1.40;;;;;;;9.10;100.00;97987.64;4144685;83;28648;-81
2022/01/04 04:14:08;;;;;;;2.30;1.20;;;;;;;9.11;100.00;97974.55;4146525;84;28545;-82
2022/01/04 04:20:11;;;;;;;3.37;1.07;;;;;;;9.10;100.00;97966.73;4144346;84;28556;-82
2022/01/04 04:26:12;;;;;;;2.55;0.90;;;;;;;9.01;100.00;97961.00;4148029;84;28503;-82
2022/01/04 04:32:14;;;;;;;1.98;0.90;;;;;;;8.93;100.00;97960.36;4148078;84;28457;-85
2022/01/04 04:38:16;;;;;;;2.60;0.90;;;;;;;9.07;100.00;97953.29;4144768;84;28502;-84
2022/01/04 04:44:17;;;;;;;2.02;0.93;;;;;;;9.07;100.00;97959.98;4218024;82;28556;-83
2022/01/04 04:50:18;;;;;;;2.02;1.20;;;;;;;8.97;100.00;97952.64;4220186;82;28482;-82
2022/01/04 04:56:19;;;;;;;3.10;1.52;;;;;;;8.93;100.00;97940.25;4214690;82;28608;-83
2022/01/04 05:02:21;;;;;;;1.65;0.90;;;;;;;8.89;100.00;97935.08;4219814;82;28468;-82
2022/01/04 05:08:23;;;;;;;2.00;1.00;;;;;;;8.76;100.00;97923.38;4231006;82;28502;-84
2022/01/04 05:14:25;;;;;;;2.85;0.88;;;;;;;8.91;100.00;97919.59;4221746;81;28578;-80
2022/01/04 05:20:26;;;;;;;2.22;1.07;;;;;;;8.93;100.00;97916.64;4245245;82;28532;-79
2022/01/04 05:26:27;;;;;;;1.20;0.88;;;;;;;8.95;100.00;97912.37;4219361;82;28559;-80
2022/01/04 05:32:29;;;;;;;2.75;1.00;;;;;;;8.97;100.00;97911.08;4213982;82;28508;-80
2022/01/04 05:38:30;;;;;;;2.00;1.10;;;;;;;8.92;100.00;97897.59;4204632;82;28598;-82
2022/01/04 05:44:31;;;;;;;2.50;1.17;;;;;;;8.76;100.00;97891.22;4193154;82;28530;-80
2022/01/04 05:50:34;;;;;;;3.58;1.07;;;;;;;8.64;100.00;97882.77;4196692;82;28517;-82
2022/01/04 05:56:36;;;;;;;2.08;1.20;;;;;;;8.46;100.00;97878.98;4212009;82;28464;-80
2022/01/04 06:02:37;;;;;;;3.22;1.30;;;;;;;8.48;100.00;97868.83;4201278;82;28534;-81
2022/01/04 06:08:38;;;;;;;2.17;1.00;;;;;;;8.31;100.00;97855.47;4183611;82;28670;-80
2022/01/04 06:14:52;;;;;;;4.37;1.50;;;;;;;8.17;100.00;97850.97;4196301;82;28593;-79
2022/01/04 06:20:56;;;;;;;3.25;1.65;;;;;;;8.23;100.00;97855.36;4194419;82;28462;-78
2022/01/04 06:26:57;;;;;;;4.47;1.35;;;;;;;8.23;100.00;97850.83;4193528;82;28593;-79
2022/01/04 06:33:00;;;;;;;2.87;1.70;;;;;;;8.34;100.00;97847.76;4120536;84;28511;-80
2022/01/04 06:39:01;;;;;;;2.22;1.20;;;;;;;8.43;100.00;97844.66;4134169;84;28551;-81
2022/01/04 06:45:04;;;;;;;3.52;1.10;;;;;;;8.46;100.00;97848.18;4109381;85;28528;-82
2022/01/04 06:51:05;;;;;;;1.17;0.80;;;;;;;8.66;100.00;97841.00;4049043;86;28572;-83
2022/01/04 06:57:07;;;;;;;1.45;0.70;;;;;;;8.88;100.00;97831.61;4053391;86;28522;-82
2022/01/04 07:03:08;;;;;;;2.05;0.90;;;;;;;9.12;100.00;97822.50;4058182;86;28680;-76
2022/01/04 07:09:10;;;;;;;3.42;0.88;;;;;;;9.27;100.00;97813.80;4182399;83;28516;-79
2022/01/04 07:15:11;;;;;;;2.33;1.02;;;;;;;9.34;100.00;97807.17;4183569;83;28598;-74
2022/01/04 07:21:15;;;;;;;1.27;0.80;;;;;;;9.58;100.00;97812.76;4182820;83;28566;-75
2022/01/04 07:27:16;;;;;;;1.50;0.90;;;;;;;9.70;100.00;97808.58;4184059;83;28507;-74
2022/01/04 07:33:17;;;;;;;1.92;0.88;;;;;;;9.69;100.00;97801.05;4184241;83;28544;-78
2022/01/04 07:39:18;;;;;;;2.05;0.82;;;;;;;9.86;100.00;97792.86;4173641;83;28490;-79
2022/01/04 07:45:19;;;;;;;1.32;0.78;;;;;;;10.02;100.00;97773.63;4172754;83;28646;-80
2022/01/04 07:51:21;;;;;;;3.15;1.15;;;;;;;10.09;100.00;97753.81;4190764;83;28531;-81
2022/01/04 07:57:22;;;;;;;1.72;1.00;;;;;;;10.32;100.00;97741.30;4198523;83;28589;-80
2022/01/04 08:03:23;;;;;;;1.60;0.72;;;;;;;10.45;100.00;97742.75;4200290;83;28501;-81
2022/01/04 08:09:24;;;;;;;1.90;0.60;;;;;;;10.53;100.00;97722.61;4197518;82;28616;-81
2022/01/04 08:15:27;;;;;;;1.52;1.00;;;;;;;10.68;100.00;97729.92;4207979;83;28527;-82
2022/01/04 08:21:28;;;;;;;1.50;0.70;;;;;;;10.69;100.00;97722.69;4209367;83;28527;-76
2022/01/04 08:27:30;;;;;;;1.57;0.90;;;;;;;10.87;100.00;97707.38;4200202;83;28563;-77
2022/01/04 08:33:31;;;;;;;1.72;0.80;;;;;;;10.86;100.00;97700.95;4182503;83;28543;-79
2022/01/04 08:39:33;;;;;;;2.27;0.95;;;;;;;10.85;100.00;97688.58;4191439;83;28540;-80
2022/01/04 08:45:35;;;;;;;1.87;0.80;;;;;;;10.78;100.00;97676.74;4197215;83;28608;-77
2022/01/04 08:51:37;;;;;;;2.47;1.32;;;;;;;10.98;100.00;97660.34;4189977;83;28570;-77
2022/01/04 08:57:39;;;;;;;2.98;1.45;;;;;;;10.93;100.00;97657.66;4189075;83;28514;-75
2022/01/04 09:03:40;;;;;;;3.22;1.72;;;;;;;10.81;100.00;97642.59;4194110;83;28545;-74
2022/01/04 09:09:41;;;;;;;3.22;1.50;;;;;;;10.70;100.00;97631.00;4186608;83;28555;-74
2022/01/04 09:21:45;;;;;;;4.08;1.87;;;;;;;10.78;100.00;97612.75;4114467;85;28590;-73
2022/01/04 09:27:46;;;;;;;4.42;1.77;;;;;;;10.83;100.00;97588.02;4110828;85;28523;-75
2022/01/04 09:33:48;;;;;;;5.08;2.00;;;;;;;10.79;100.00;97576.20;4194004;83;28584;-78
2022/01/04 09:39:49;;;;;;;5.72;2.00;;;;;;;10.79;100.00;97558.72;4200867;83;28498;-74
2022/01/04 09:45:53;;;;;;;3.98;1.60;;;;;;;10.73;100.00;97539.63;4144514;84;28595;-76
2022/01/04 09:51:55;;;;;;;2.72;1.62;;;;;;;10.84;100.00;97529.69;4144568;83;28523;-76
2022/01/04 09:57:56;;;;;;;2.30;1.45;;;;;;;10.99;100.00;97524.84;4145101;83;28504;-75
2022/01/04 10:03:58;;;;;;;4.30;1.92;;;;;;;11.02;100.00;97502.22;4141690;83;28479;-76
2022/01/04 10:10:02;;;;;;;4.03;1.72;;;;;;;11.00;100.00;97481.52;4149486;83;28525;-78
2022/01/04 10:16:15;;;;;;;6.92;2.98;;;;;;;11.34;100.00;97469.33;4115678;83;28527;-78
2022/01/04 10:22:32;;;;;;;5.53;2.15;;;;;;;11.41;100.00;97466.34;4146292;83;28518;-77
2022/01/04 10:28:40;;;;;;;3.72;1.98;;;;;;;11.36;100.00;97468.50;4224977;82;28491;-78
2022/01/04 10:34:48;;;;;;;5.87;2.08;;;;;;;11.58;100.00;97464.12;4198179;82;28544;-77
2022/01/04 10:41:09;;;;;;;4.50;2.15;;;;;;;11.66;100.00;97440.37;4194266;82;28574;-78
2022/01/04 10:47:11;;;;;;;3.70;2.30;;;;;;;11.57;100.00;97431.56;4188661;83;28566;-78
2022/01/04 10:53:26;;;;;;;5.40;2.45;;;;;;;11.64;100.00;97426.39;4184598;83;28565;-81
2022/01/04 10:59:28;;;;;;;4.17;2.27;;;;;;;11.54;100.00;97417.29;4183503;83;28558;-79
2022/01/04 11:05:29;;;;;;;4.80;2.25;;;;;;;11.62;100.00;97399.77;4193726;83;28561;-79
2022/01/04 11:11:31;;;;;;;6.37;2.70;;;;;;;11.34;100.00;97395.34;4190387;82;28600;-80
2022/01/04 11:17:32;;;;;;;4.55;2.72;;;;;;;11.28;100.00;97381.10;4185925;83;28513;-80
2022/01/04 11:23:34;;;;;;;4.15;2.40;;;;;;;11.34;100.00;97387.79;4194342;83;28546;-79
2022/01/04 11:29:39;;;;;;;5.25;1.80;;;;;;;11.44;100.00;97376.45;4186145;83;28524;-78
2022/01/04 11:35:40;;;;;;;2.27;1.37;;;;;;;11.42;100.00;97367.03;4191426;83;28594;-80
2022/01/04 11:41:42;;;;;;;3.77;1.80;;;;;;;11.81;100.00;97349.28;4188022;83;28551;-78
2022/01/04 11:47:48;;;;;;;2.87;1.62;;;;;;;11.94;100.00;97335.73;4154064;84;28615;-81
2022/01/04 11:54:20;;;;;;;3.52;1.50;;;;;;;12.05;100.00;97319.77;4142086;84;28516;-80
2022/01/04 12:00:37;;;;;;;3.27;1.25;;;;;;;12.03;100.00;97304.97;4140397;84;28557;-83
2022/01/04 12:06:42;;;;;;;2.50;1.27;;;;;;;12.33;100.00;97301.20;4139836;84;28547;-82
2022/01/04 12:13:09;;;;;;;3.70;1.37;;;;;;;12.35;100.00;97294.97;4143415;84;28549;-78
2022/01/04 12:19:15;;;;;;;2.60;1.30;;;;;;;12.42;100.00;97283.84;4159065;84;28530;-79
2022/01/04 12:25:16;;;;;;;2.55;1.12;;;;;;;12.35;100.00;97273.41;4148490;85;28472;-78
2022/01/04 12:31:24;;;;;;;2.90;1.22;;;;;;;12.49;100.00;97262.75;4183046;84;28511;-77
2022/01/04 12:37:25;;;;;;;2.50;1.00;;;;;;;12.42;100.00;97250.16;4149150;85;28563;-78
2022/01/04 12:43:27;;;;;;;3.95;1.70;;;;;;;12.51;100.00;97239.00;4169566;84;28478;-80
2022/01/04 12:49:32;;;;;;;3.40;1.27;;;;;;;12.68;100.00;97217.52;4144003;85;28547;-77
2022/01/04 12:55:33;;;;;;;1.67;1.20;;;;;;;12.83;100.00;97211.12;4166725;85;28501;-77
2022/01/04 13:01:35;;;;;;;2.15;1.32;;;;;;;12.75;100.00;97192.89;4216070;83;28500;-78
2022/01/04 13:07:39;;;;;;;2.05;1.00;;;;;;;12.90;100.00;97187.83;4222645;83;28533;-75
2022/01/04 13:13:40;;;;;;;1.75;1.02;;;;;;;13.01;100.00;97174.97;4182106;85;28562;-78
2022/01/04 13:19:43;;;;;;;1.87;1.07;;;;;;;13.07;100.00;97164.38;4178273;85;28500;-78
2022/01/04 13:25:44;;;;;;;3.08;1.07;;;;;;;13.03;100.00;97156.06;4193163;83;28557;-77
2022/01/04 13:31:46;;;;;;;2.90;1.15;;;;;;;13.06;100.00;97151.98;4188554;83;28528;-76
2022/01/04 13:37:55;;;;;;;1.55;1.10;;;;;;;13.06;100.00;97148.72;4196308;83;28541;-78
2022/01/04 13:44:04;;;;;;;1.62;1.15;;;;;;;13.10;100.00;97132.75;4208736;83;28511;-80
2022/01/04 13:50:19;;;;;;;2.08;1.17;;;;;;;13.00;100.00;97106.75;4223725;83;28490;-78
2022/01/04 13:56:26;;;;;;;2.22;1.17;;;;;;;13.03;100.00;97094.02;4190496;83;28559;-80
2022/01/04 14:02:30;;;;;;;2.95;1.20;;;;;;;13.14;100.00;97081.17;4165097;83;28527;-81
2022/01/04 14:08:50;;;;;;;2.70;1.07;;;;;;;13.07;100.00;97089.65;4171930;83;28514;-78
2022/01/04 14:14:54;;;;;;;1.85;1.10;;;;;;;13.05;100.00;97071.59;4203896;83;28541;-77
2022/01/04 14:20:55;;;;;;;2.50;1.25;;;;;;;12.86;100.00;97055.45;4215228;83;28613;-77
2022/01/04 14:26:58;;;;;;;3.02;1.40;;;;;;;12.79;100.00;97046.41;4184757;83;28527;-77
2022/01/04 14:33:03;;;;;;;2.80;1.40;;;;;;;12.58;100.00;97036.47;4193220;83;28564;-78
2022/01/04 14:39:09;;;;;;;2.80;1.47;;;;;;;12.62;100.00;97022.68;4191893;83;28515;-76
2022/01/04 14:45:17;;;;;;;3.15;1.80;;;;;;;12.60;100.00;97015.97;4240400;83;28525;-78
2022/01/04 14:51:18;;;;;;;4.12;2.10;;;;;;;12.67;100.00;97001.58;4192710;84;28506;-78
2022/01/04 14:57:23;;;;;;;4.35;2.30;;;;;;;12.48;100.00;96992.97;4213250;83;28459;-76
2022/01/04 15:03:24;;;;;;;3.42;2.10;;;;;;;12.32;100.00;96988.91;4231709;83;28513;-76
2022/01/04 15:09:26;;;;;;;5.53;2.30;;;;;;;12.33;100.00;96976.50;4212761;82;28560;-76
2022/01/04 15:15:27;;;;;;;5.08;2.58;;;;;;;12.26;100.00;96980.91;4204296;83;28534;-78
2022/01/04 15:21:29;;;;;;;4.60;2.80;;;;;;;12.29;100.00;96965.25;4200074;83;28590;-79
2022/01/04 15:27:30;;;;;;;7.72;3.10;;;;;;;12.02;100.00;96969.38;4194534;83;28512;-78
2022/01/04 15:33:37;;;;;;;8.75;3.92;;;;;;;12.03;100.00;96961.58;4192799;83;28524;-80
2022/01/04 15:39:39;;;;;;;7.45;4.00;;;;;;;11.69;100.00;96950.70;4198220;83;29025;-79
2022/01/04 15:45:40;;;;;;;7.65;3.90;;;;;;;11.77;100.00;96941.19;4192222;82;28558;-79
2022/01/04 15:51:42;;;;;;;8.35;3.98;;;;;;;11.68;100.00;96924.88;4199237;83;28497;-79
2022/01/04 15:57:46;;;;;;;7.30;3.52;;;;;;;12.03;100.00;96916.60;4265430;82;28516;-78
2022/01/04 16:03:48;;;;;;;6.95;3.30;;;;;;;12.15;100.00;96913.47;4217936;82;28473;-82
2022/01/04 16:09:51;;;;;;;6.15;3.30;;;;;;;12.08;100.00;96905.77;4249528;83;28517;-77
2022/01/04 16:16:04;;;;;;;5.62;3.25;;;;;;;12.17;100.00;96901.84;4274191;82;28550;-79
2022/01/04 16:22:01;;;;;;;;;;;;;;;12.18;100.00;96892.67;4199613;82;28541;-76
2022/01/04 16:28:04;;;;;;;5.65;2.37;;;;;;;12.19;100.00;96895.61;4168930;82;20333;-81
2022/01/04 16:34:07;;;;;;;4.83;2.30;;;;;;;12.27;100.00;96886.05;4194259;82;28589;-75
2022/01/04 16:40:13;;;;;;;3.95;2.02;;;;;;;12.23;100.00;96872.37;4192825;82;28486;-79
2022/01/04 16:46:15;;;;;;;6.37;2.30;;;;;;;12.31;100.00;96881.69;4196881;82;28580;-78
2022/01/04 16:52:17;;;;;;;5.17;2.40;;;;;;;12.49;100.00;96877.33;4186782;83;28525;-80
2022/01/04 16:58:18;;;;;;;3.72;2.20;;;;;;;12.60;100.00;96875.80;4195991;83;28572;-79
2022/01/04 17:04:25;;;;;;;5.45;2.58;;;;;;;12.54;100.00;96865.09;4191279;83;28555;-78
2022/01/04 17:10:28;;;;;;;5.45;2.50;;;;;;;12.43;100.00;96868.29;4201575;83;28548;-77
2022/01/04 17:16:29;;;;;;;4.37;2.12;;;;;;;12.44;100.00;96857.76;4204969;83;28632;-79
2022/01/04 17:22:31;;;;;;;5.08;2.52;;;;;;;12.50;100.00;96854.67;4107169;85;28530;-79
2022/01/04 17:28:36;;;;;;;3.92;2.27;;;;;;;12.54;100.00;96840.05;4114152;85;28545;-80
2022/01/04 17:34:37;;;;;;;3.80;2.12;;;;;;;12.75;100.00;96832.93;4110189;85;28473;-77
2022/01/04 17:40:38;;;;;;;4.22;2.15;;;;;;;12.62;100.00;96825.08;4189923;83;28498;-79
2022/01/04 17:46:41;;;;;;;3.10;1.95;;;;;;;12.81;100.00;96831.17;4202819;83;28534;-78
2022/01/04 17:52:45;;;;;;;3.62;1.60;;;;;;;12.84;100.00;96832.48;4193650;83;28993;-77
2022/01/04 17:58:47;;;;;;;2.85;1.70;;;;;;;12.70;100.00;96827.08;4196072;83;28541;-78
2022/01/04 18:04:49;;;;;;;3.15;1.77;;;;;;;13.03;100.00;96824.27;4197776;83;28462;-77
2022/01/04 18:10:51;;;;;;;2.98;1.60;;;;;;;12.96;100.00;96837.35;4204670;83;28549;-77
2022/01/04 18:16:57;;;;;;;5.92;2.40;;;;;;;12.93;100.00;96829.87;4200451;83;28535;-78
2022/01/04 18:23:00;;;;;;;3.05;1.70;;;;;;;12.98;100.00;96820.34;4205668;83;28619;-78
2022/01/04 18:29:07;;;;;;;3.75;1.87;;;;;;;12.85;100.00;96802.25;4196120;83;28474;-80
2022/01/04 18:35:10;;;;;;;3.33;1.62;;;;;;;13.05;100.00;96799.13;4188148;83;28511;-78
2022/01/04 18:41:12;;;;;;;5.05;2.00;;;;;;;13.00;100.00;96793.05;4196391;83;28564;-81
2022/01/04 18:47:14;;;;;;;4.47;2.10;;;;;;;13.21;100.00;96793.42;4210945;83;28527;-80
2022/01/04 18:53:17;;;;;;;2.62;1.70;;;;;;;13.12;100.00;96786.61;4205835;83;28576;-79
2022/01/04 18:59:18;;;;;;;3.72;1.85;;;;;;;13.18;100.00;96793.47;4197561;83;28537;-79
2022/01/04 19:05:20;;;;;;;3.72;1.90;;;;;;;13.15;100.00;96786.53;4103107;85;28530;-77
2022/01/04 19:11:24;;;;;;;3.95;1.72;;;;;;;13.00;100.00;96783.61;4201690;83;28531;-81
2022/01/04 19:17:26;;;;;;;3.55;1.80;;;;;;;12.99;100.00;96782.83;4199420;83;28558;-76
2022/01/04 19:23:32;;;;;;;2.87;1.95;;;;;;;13.10;100.00;96782.85;4192720;83;28600;-79
2022/01/04 19:29:40;;;;;;;4.05;2.08;;;;;;;13.18;100.00;96783.25;4195590;83;28533;-78
2022/01/04 19:42:07;;;;;;;4.53;2.05;;;;;;;13.23;100.00;96788.52;4195254;83;20286;-83
2022/01/04 19:48:16;;;;;;;3.45;1.80;;;;;;;13.24;100.00;96782.02;4208987;83;28484;-78
2022/01/04 19:54:19;;;;;;;2.85;1.62;;;;;;;13.32;100.00;96782.64;4213143;83;28535;-79
2022/01/04 20:00:20;;;;;;;2.95;1.32;;;;;;;13.36;100.00;96772.83;4224550;83;28540;-78
2022/01/04 20:06:23;;;;;;;3.22;1.50;;;;;;;13.48;100.00;96775.02;4212661;82;28497;-80
2022/01/04 20:12:25;;;;;;;4.30;2.02;;;;;;;13.55;100.00;96792.14;4211562;82;28567;-79
2022/01/04 20:18:28;;;;;;;2.58;1.52;;;;;;;13.39;100.00;96780.33;4216247;83;28540;-79
2022/01/04 20:24:29;;;;;;;2.90;1.65;;;;;;;13.41;100.00;96780.01;4213072;83;28511;-80
2022/01/04 20:30:32;;;;;;;3.77;1.60;;;;;;;13.36;100.00;96769.34;4214523;82;28519;-74
2022/01/04 20:36:34;;;;;;;2.77;1.75;;;;;;;13.18;100.00;96758.39;4221760;82;28649;-86
2022/01/04 20:42:37;;;;;;;3.87;1.62;;;;;;;13.29;100.00;96766.27;4215915;83;28499;-84
2022/01/04 20:48:38;;;;;;;2.92;1.70;;;;;;;13.43;100.00;96767.56;4185937;82;28517;-83
2022/01/04 20:54:40;;;;;;;2.80;1.50;;;;;;;13.45;100.00;96772.95;4198550;82;28498;-86
2022/01/04 21:00:41;;;;;;;3.35;1.70;;;;;;;13.47;100.00;96767.22;4210923;82;28560;-83
2022/01/04 21:06:43;;;;;;;4.35;1.95;;;;;;;13.44;100.00;96772.70;4191339;82;28574;-81
2022/01/04 21:12:44;;;;;;;3.83;1.80;;;;;;;13.36;100.00;96779.57;4199442;82;28550;-80
2022/01/04 21:18:46;;;;;;;3.08;1.60;;;;;;;13.40;100.00;96794.61;4202648;82;28513;-84
2022/01/04 21:24:47;;;;;;;3.87;2.17;;;;;;;13.41;100.00;96802.95;4201105;83;28557;-84
2022/01/04 21:30:51;;;;;;;2.42;1.42;;;;;;;13.52;100.00;96827.28;4204134;82;28572;-80
2022/01/04 21:36:52;;;;;;;4.70;1.77;;;;;;;13.54;100.00;96824.30;4206649;82;28628;-81
2022/01/04 21:42:54;;;;;;;3.77;1.60;;;;;;;13.61;100.00;96840.88;4202790;82;28554;-81
2022/01/04 21:48:56;;;;;;;3.62;1.82;;;;;;;13.56;100.00;96835.58;4194673;82;28565;-84
2022/01/04 21:55:03;;;;;;;3.52;1.52;;;;;;;13.64;100.00;96828.11;4207066;81;28541;-82
2022/01/04 22:01:03;;;;;;;3.02;1.85;;;;;;;13.66;100.00;96835.91;4191436;82;28516;-83
2022/01/04 22:07:07;;;;;;;4.10;1.77;;;;;;;13.56;100.00;96838.84;4189769;82;28525;-82
2022/01/04 22:13:08;;;;;;;2.25;1.52;;;;;;;13.61;100.00;96858.42;4212774;82;28560;-80
2022/01/04 22:19:12;;;;;;;3.10;1.70;;;;;;;13.67;100.00;96865.86;4195227;82;28566;-79
2022/01/04 22:25:15;;;;;;;4.30;1.72;;;;;;;13.66;100.00;96874.50;4191917;82;28602;-82
2022/01/04 22:31:20;;;;;;;2.58;1.42;;;;;;;13.68;100.00;96907.14;4196992;82;28517;-81
2022/01/04 22:37:20;;;;;;;3.08;1.60;;;;;;;13.65;100.00;96936.92;4194132;82;28551;-75
2022/01/04 22:43:22;;;;;;;5.35;2.62;;;;;;;13.60;100.00;96987.78;4201420;82;28536;-76
2022/01/04 22:49:23;;;;;;;2.25;1.30;;;;;;;12.58;100.00;97027.03;4210559;82;28538;-74
2022/01/04 22:55:24;;;;;;;4.10;1.50;;;;;;;11.88;100.00;97023.95;4189392;82;28510;-76
2022/01/04 23:01:26;;;;;;;2.60;1.30;;;;;;;11.35;100.00;97038.29;4189943;82;28526;-75
2022/01/04 23:07:27;;;;;;;2.65;1.57;;;;;;;11.41;100.00;97062.19;4197121;82;28523;-74
2022/01/04 23:13:28;;;;;;;2.17;1.50;;;;;;;10.98;100.00;97073.61;4198346;82;28523;-76
2022/01/04 23:19:33;;;;;;;3.70;1.70;;;;;;;11.01;100.00;97077.07;4189015;82;28557;-77
2022/01/04 23:25:34;;;;;;;4.12;1.90;;;;;;;11.09;100.00;97081.59;4193804;82;28570;-76
2022/01/04 23:31:35;;;;;;;3.27;1.62;;;;;;;11.20;100.00;97101.92;4199266;82;28592;-76
2022/01/04 23:37:37;;;;;;;3.75;1.67;;;;;;;11.08;100.00;97108.22;4194679;82;28492;-76
2022/01/04 23:43:38;;;;;;;3.52;1.70;;;;;;;11.14;100.00;97125.38;4205821;82;28651;-75
2022/01/04 23:49:40;;;;;;;2.80;1.65;;;;;;;11.13;100.00;97145.29;4194512;82;28540;-79
2022/01/04 23:55:42;;;;;;;4.05;2.05;;;;;;;10.93;100.00;97127.97;4197070;82;28530;-74
